Time;durP1;ratioP1;P1;durP2;ratioP2;P2;SDS_P1;SDS_P2;PMS_P1;PMS_P2;Temp;Humidity;BMP_temperature;BMP_pressure;BME280_temperature;BME280_humidity;BME280_pressure;Samples;Min_cycle;Max_cycle;Signal;HPM_P1;HPM_P2
2022/11/20 00:00:01;;;;;;;;;;;;;;;18.86;58.53;95053.69;10514500;28;2728;-52
2022/11/20 00:05:02;;;;;;;;;;;;;;;18.85;58.37;95055.56;10510672;28;2589;-48
2022/11/20 00:10:02;;;;;;;;;;;;;;;18.84;58.50;95056.59;10505271;28;2742;-50
2022/11/20 00:15:04;;;;;;;;;;;;;;;18.81;58.60;95059.81;10498856;28;2590;-51
2022/11/20 00:20:04;;;;;;;;;;;;;;;18.80;58.60;95060.84;10498832;28;2588;-53
2022/11/20 00:25:05;;;;;;;;;;;;;;;18.78;58.19;95064.81;10500088;28;2588;-48
2022/11/20 00:30:08;;;;;;;;;;;;;;;18.76;58.79;95062.47;10507556;28;2652;-47
2022/11/20 00:35:09;;;;;;;;;;;;;;;18.75;58.01;95070.63;10502016;28;2593;-50
2022/11/20 00:40:14;;;;;;;;;;;;;;;18.73;58.21;95073.53;10508810;28;2605;-47
2022/11/20 00:45:14;;;;;;;;;;;;;;;18.70;58.42;95074.09;10511863;28;2574;-51
2022/11/20 00:50:15;;;;;;;;;;;;;;;18.70;58.51;95074.09;10502813;28;2551;-48
2022/11/20 00:55:15;;;;;;;;;;;;;;;18.68;57.87;95073.59;10503539;28;2619;-48
2022/11/20 01:00:15;;;;;;;;;;;;;;;18.67;58.28;95082.50;10507032;28;2757;-49
2022/11/20 01:05:15;;;;;;;;;;;;;;;18.64;57.79;95080.44;10503421;28;2645;-52
2022/11/20 01:10:17;;;;;;;;;;;;;;;18.63;58.01;95084.13;10504374;28;2628;-53
2022/11/20 01:15:17;;;;;;;;;;;;;;;18.62;58.01;95098.31;10510315;28;2576;-52
2022/11/20 01:20:18;;;;;;;;;;;;;;;18.59;57.89;95097.03;10500816;28;2652;-47
2022/11/20 01:25:18;;;;;;;;;;;;;;;18.59;57.95;95096.22;10502995;28;2608;-51
2022/11/20 01:30:18;;;;;;;;;;;;;;;18.58;58.11;95095.47;10509942;28;2609;-51
2022/11/20 01:35:18;;;;;;;;;;;;;;;18.57;58.06;95096.50;10505262;28;2677;-54
2022/11/20 01:40:19;;;;;;;;;;;;;;;18.54;57.76;95097.09;10501648;28;2610;-50
2022/11/20 01:45:37;;;;;;;;;;;;;;;18.53;58.37;95107.84;10510463;28;2601;-53
2022/11/20 01:50:38;;;;;;;;;;;;;;;18.52;58.02;95108.91;10512767;28;2568;-49
2022/11/20 01:55:41;;;;;;;;;;;;;;;18.52;58.18;95103.66;10505898;28;2531;-50
2022/11/20 02:00:42;;;;;;;;;;;;;;;18.48;57.90;95103.44;10505800;28;2613;-49
2022/11/20 02:05:53;;;;;;;;;;;;;;;18.49;58.22;95096.31;10506231;28;2628;-51
2022/11/20 02:10:54;;;;;;;;;;;;;;;18.46;58.04;95105.56;10516092;28;2552;-51
2022/11/20 02:15:54;;;;;;;;;;;;;;;18.43;57.85;95108.72;10505101;28;2507;-51
2022/11/20 02:20:56;;;;;;;;;;;;;;;18.43;57.98;95111.34;10521343;28;2623;-52
2022/11/20 02:25:57;;;;;;;;;;;;;;;18.42;57.69;95098.47;10514145;28;2755;-52
2022/11/20 02:30:57;;;;;;;;;;;;;;;18.41;57.57;95104.75;10515991;28;2609;-49
2022/11/20 02:35:58;;;;;;;;;;;;;;;18.40;57.44;95101.34;10511111;28;2544;-51
2022/11/20 02:40:58;;;;;;;;;;;;;;;18.39;57.48;95107.66;10509637;28;2529;-53
2022/11/20 02:45:58;;;;;;;;;;;;;;;18.37;57.94;95109.00;10509200;28;2617;-50
2022/11/20 02:50:59;;;;;;;;;;;;;;;18.37;57.72;95103.75;10510097;28;2586;-53
2022/11/20 02:55:59;;;;;;;;;;;;;;;18.34;57.67;95107.69;10512638;28;2587;-53
2022/11/20 03:01:00;;;;;;;;;;;;;;;18.34;57.47;95101.69;10510964;28;2760;-52
2022/11/20 03:06:00;;;;;;;;;;;;;;;18.32;57.84;95098.56;10505415;28;2558;-52
2022/11/20 03:11:06;;;;;;;;;;;;;;;18.31;57.75;95104.84;10508844;28;2563;-52
2022/11/20 03:16:07;;;;;;;;;;;;;;;18.31;57.68;95095.13;10500904;28;2546;-50
2022/11/20 03:21:08;;;;;;;;;;;;;;;18.29;57.75;95094.63;10508330;28;2598;-53
2022/11/20 03:26:13;;;;;;;;;;;;;;;18.28;57.91;95094.91;10504713;28;2611;-51
2022/11/20 03:31:14;;;;;;;;;;;;;;;18.26;57.48;95091.78;10516619;28;2554;-49
2022/11/20 03:36:15;;;;;;;;;;;;;;;18.25;57.14;95095.44;10509519;28;2629;-53
2022/11/20 03:41:16;;;;;;;;;;;;;;;18.24;57.60;95091.25;10512468;28;2592;-52
2022/11/20 03:46:16;;;;;;;;;;;;;;;18.23;57.37;95092.31;10502116;28;2594;-48
2022/11/20 03:51:20;;;;;;;;;;;;;;;18.22;57.04;95088.09;10506507;28;2593;-52
2022/11/20 03:56:24;;;;;;;;;;;;;;;18.21;57.07;95102.28;10510249;28;2519;-54
2022/11/20 04:01:25;;;;;;;;;;;;;;;18.21;57.22;95102.28;10479059;28;2579;-48
2022/11/20 04:06:26;;;;;;;;;;;;;;;18.19;57.15;95109.66;10507892;28;2952;-53
2022/11/20 04:11:27;;;;;;;;;;;;;;;18.18;57.02;95113.31;10500739;28;2604;-50
2022/11/20 04:16:31;;;;;;;;;;;;;;;18.18;57.27;95105.44;10502664;28;2679;-53
2022/11/20 04:21:32;;;;;;;;;;;;;;;18.16;57.18;95104.94;10512382;28;2666;-52
2022/11/20 04:26:32;;;;;;;;;;;;;;;18.13;57.06;95102.88;10506890;28;2543;-51
2022/11/20 04:31:33;;;;;;;;;;;;;;;18.12;57.09;95101.31;10501580;28;2567;-51
2022/11/20 04:36:33;;;;;;;;;;;;;;;18.11;57.02;95097.13;10495859;28;2594;-51
2022/11/20 04:41:34;;;;;;;;;;;;;;;18.10;57.31;95106.03;10529915;28;2642;-52
2022/11/20 04:46:38;;;;;;;;;;;;;;;18.09;56.89;95101.88;10507824;28;2672;-49
2022/11/20 04:51:42;;;;;;;;;;;;;;;18.08;56.92;95113.38;10514090;28;2551;-50
2022/11/20 04:56:42;;;;;;;;;;;;;;;18.09;57.38;95113.13;10508044;28;2616;-51
2022/11/20 05:01:43;;;;;;;;;;;;;;;18.11;57.62;95112.88;10499201;28;2574;-51
2022/11/20 05:06:45;;;;;;;;;;;;;;;18.12;57.68;95107.34;10512117;28;2606;-48
2022/11/20 05:11:45;;;;;;;;;;;;;;;18.13;57.52;95105.50;10515267;28;2517;-49
2022/11/20 05:16:45;;;;;;;;;;;;;;;18.15;57.42;95104.19;10505518;28;2719;-51
2022/11/20 05:21:46;;;;;;;;;;;;;;;18.20;57.46;95104.13;10503103;28;2780;-52
2022/11/20 05:26:47;;;;;;;;;;;;;;;18.25;57.35;95105.94;10516839;28;2744;-52
2022/11/20 05:31:47;;;;;;;;;;;;;;;18.31;57.32;95118.75;10512403;28;2629;-51
2022/11/20 05:36:47;;;;;;;;;;;;;;;18.37;57.61;95115.03;10508378;28;2535;-49
2022/11/20 05:42:29;;;;;;;;;;;;;;;18.44;57.80;95114.75;10519494;28;2698;-52
2022/11/20 05:47:08;;;;;;;;;;;;;;;18.50;57.99;95113.66;10513343;28;2596;-52
2022/11/20 05:52:08;;;;;;;;;;;;;;;18.54;57.80;95118.06;10508111;28;2560;-52
2022/11/20 05:57:08;;;;;;;;;;;;;;;18.58;57.81;95113.06;10503845;28;2598;-53
2022/11/20 06:02:09;;;;;;;;;;;;;;;18.61;57.90;95108.03;10528722;27;2610;-51
2022/11/20 06:07:10;;;;;;;;;;;;;;;18.65;57.90;95103.78;10505422;28;2607;-52
2022/11/20 06:12:10;;;;;;;;;;;;;;;18.68;57.79;95112.97;10510956;28;2598;-53
2022/11/20 06:17:10;;;;;;;;;;;;;;;18.72;57.77;95116.59;10494388;28;2595;-51
2022/11/20 06:22:10;;;;;;;;;;;;;;;18.75;57.83;95110.00;10498664;28;2694;-50
2022/11/20 06:27:11;;;;;;;;;;;;;;;18.78;57.40;95106.81;10498110;28;2602;-50
2022/11/20 06:32:11;;;;;;;;;;;;;;;18.79;57.65;95109.19;10497573;28;2568;-51
2022/11/20 06:37:11;;;;;;;;;;;;;;;18.83;57.00;95120.72;10505936;28;2591;-50
2022/11/20 06:42:12;;;;;;;;;;;;;;;18.85;56.91;95123.84;10501939;28;2578;-50
2022/11/20 06:47:12;;;;;;;;;;;;;;;18.84;56.71;95126.72;10497069;28;2573;-49
2022/11/20 06:52:13;;;;;;;;;;;;;;;18.87;56.86;95134.06;10501324;28;2590;-50
2022/11/20 06:57:13;;;;;;;;;;;;;;;18.84;56.81;95140.63;10499020;28;2545;-51
2022/11/20 07:02:13;;;;;;;;;;;;;;;18.84;56.49;95143.25;10512663;28;2636;-51
2022/11/20 07:07:13;;;;;;;;;;;;;;;18.86;56.69;95150.84;10509637;28;2533;-54
2022/11/20 07:12:14;;;;;;;;;;;;;;;18.86;56.34;95146.41;10510015;28;2607;-51
2022/11/20 07:17:14;;;;;;;;;;;;;;;18.89;56.49;95159.00;10501006;28;2512;-51
2022/11/20 07:22:14;;;;;;;;;;;;;;;18.91;56.23;95161.31;10509602;28;2610;-51
2022/11/20 07:27:15;;;;;;;;;;;;;;;18.92;55.92;95166.28;10512999;28;2575;-53
2022/11/20 07:32:15;;;;;;;;;;;;;;;18.94;56.36;95164.19;10508276;28;2559;-51
2022/11/20 07:37:15;;;;;;;;;;;;;;;18.95;55.85;95160.50;10502620;28;2913;-52
2022/11/20 07:42:16;;;;;;;;;;;;;;;18.97;56.00;95160.22;10514989;28;2922;-52
2022/11/20 07:47:16;;;;;;;;;;;;;;;18.98;56.26;95162.56;10510269;28;2968;-53
2022/11/20 07:52:17;;;;;;;;;;;;;;;18.99;55.99;95161.50;10504789;28;2896;-50
2022/11/20 07:57:17;;;;;;;;;;;;;;;19.00;55.77;95165.69;10503059;28;2940;-52
2022/11/20 08:02:25;;;;;;;;;;;;;;;18.98;55.04;95170.44;10513307;28;2899;-49
2022/11/20 08:07:25;;;;;;;;;;;;;;;18.99;55.23;95166.78;10509954;28;2815;-50
2022/11/20 08:17:45;;;;;;;;;;;;;;;18.96;54.48;95169.19;10511214;28;2933;-51
2022/11/20 08:22:45;;;;;;;;;;;;;;;18.94;54.52;95179.94;10509893;28;2988;-51
2022/11/20 08:27:45;;;;;;;;;;;;;;;18.97;52.90;95176.78;10502832;28;3083;-50
2022/11/20 08:32:45;;;;;;;;;;;;;;;18.96;53.49;95183.06;10506583;28;2885;-48
2022/11/20 08:37:46;;;;;;;;;;;;;;;18.93;53.82;95173.13;10502785;28;2903;-48
2022/11/20 08:42:47;;;;;;;;;;;;;;;18.92;53.96;95176.03;10512311;28;2908;-48
2022/11/20 08:47:47;;;;;;;;;;;;;;;18.92;53.68;95176.03;10507561;28;2798;-50
2022/11/20 08:52:48;;;;;;;;;;;;;;;18.90;53.16;95165.03;10514986;28;2880;-53
2022/11/20 08:57:48;;;;;;;;;;;;;;;18.93;51.73;95178.38;10506908;28;2888;-49
2022/11/20 09:02:49;;;;;;;;;;;;;;;18.97;53.48;95168.09;10511278;28;2879;-51
2022/11/20 09:07:49;;;;;;;;;;;;;;;19.05;52.73;95168.28;10504599;28;2896;-52
2022/11/20 09:12:51;;;;;;;;;;;;;;;19.12;51.10;95160.88;10504714;28;2833;-50
2022/11/20 09:18:02;;;;;;;;;;;;;;;19.22;52.46;95171.28;10516288;28;2828;-47
2022/11/20 09:23:02;;;;;;;;;;;;;;;19.30;51.65;95172.50;10510973;28;2865;-46
2022/11/20 09:28:02;;;;;;;;;;;;;;;19.37;52.17;95168.50;10513211;28;2855;-51
2022/11/20 09:33:03;;;;;;;;;;;;;;;19.45;51.49;95162.63;10519789;28;2874;-50
2022/11/20 09:38:05;;;;;;;;;;;;;;;19.44;51.99;95161.06;10508634;28;2796;-50
2022/11/20 09:43:08;;;;;;;;;;;;;;;19.33;49.57;95156.97;10498597;28;2902;-54
2022/11/20 09:48:11;;;;;;;;;;;;;;;19.28;51.10;95153.59;10518001;28;2899;-56
2022/11/20 09:53:13;;;;;;;;;;;;;;;19.16;50.99;95148.75;10506398;28;2985;-53
2022/11/20 09:58:16;;;;;;;;;;;;;;;19.23;50.19;95141.28;10515556;28;2904;-52
2022/11/20 10:03:17;;;;;;;;;;;;;;;18.34;43.33;95147.03;10507212;28;2843;-58
2022/11/20 10:08:24;;;;;;;;;;;;;;;18.15;47.04;95138.28;10506237;28;2880;-51
2022/11/20 10:13:35;;;;;;;;;;;;;;;18.46;49.62;95136.25;10506886;28;2916;-49
2022/11/20 10:18:39;;;;;;;;;;;;;;;18.62;49.92;95135.06;10508177;28;2873;-49
2022/11/20 10:23:58;;;;;;;;;;;;;;;18.69;50.55;95149.44;10513563;28;2911;-51
2022/11/20 10:29:05;;;;;;;;;;;;;;;18.72;50.09;95139.44;10516711;28;2832;-49
2022/11/20 10:34:06;;;;;;;;;;;;;;;18.81;48.43;95137.78;10510022;28;2983;-53
2022/11/20 10:39:11;;;;;;;;;;;;;;;18.83;47.72;95133.03;10504757;28;2901;-50
2022/11/20 10:44:12;;;;;;;;;;;;;;;18.97;48.26;95126.88;10539944;27;2815;-52
2022/11/20 10:49:14;;;;;;;;;;;;;;;19.07;47.14;95134.63;10516739;28;2886;-55
2022/11/20 10:54:17;;;;;;;;;;;;;;;19.18;49.18;95130.84;10514682;28;2932;-52
2022/11/20 10:59:30;;;;;;;;;;;;;;;19.17;47.05;95133.75;10514989;28;3016;-53
2022/11/20 11:04:33;;;;;;;;;;;;;;;19.16;46.83;95130.34;10519544;28;2872;-53
2022/11/20 11:09:35;;;;;;;;;;;;;;;19.15;45.75;95118.25;10519584;28;2875;-54
2022/11/20 11:14:49;;;;;;;;;;;;;;;19.16;46.83;95119.84;10508071;28;2941;-54
2022/11/20 11:20:07;;;;;;;;;;;;;;;19.20;45.85;95118.22;10511969;28;2982;-53
2022/11/20 11:25:09;;;;;;;;;;;;;;;19.33;47.59;95109.69;10516302;28;2829;-59
2022/11/20 11:30:14;;;;;;;;;;;;;;;19.43;48.53;95106.94;10514648;28;2839;-49
2022/11/20 11:35:25;;;;;;;;;;;;;;;19.50;47.78;95098.69;10507765;28;3127;-52
2022/11/20 11:40:29;;;;;;;;;;;;;;;19.57;47.19;95101.00;10517704;28;2982;-50
2022/11/20 11:45:32;;;;;;;;;;;;;;;19.60;47.12;95103.84;10514881;28;2919;-53
2022/11/20 11:50:32;;;;;;;;;;;;;;;19.66;46.13;95096.69;10522123;28;2841;-49
2022/11/20 11:55:34;;;;;;;;;;;;;;;19.74;46.32;95090.78;10522047;28;2882;-51
2022/11/20 12:00:41;;;;;;;;;;;;;;;19.78;46.36;95095.19;10460959;27;2808;-45
2022/11/20 12:05:45;;;;;;;;;;;;;;;19.82;45.57;95106.72;10433513;28;2811;-50
2022/11/20 12:10:48;;;;;;;;;;;;;;;19.84;45.60;95114.31;10431255;28;2946;-51
2022/11/20 12:15:48;;;;;;;;;;;;;;;19.86;45.23;95117.44;10450847;28;2887;-50
2022/11/20 12:21:07;;;;;;;;;;;;;;;19.93;45.55;95107.34;10436417;28;2894;-48
2022/11/20 12:26:15;;;;;;;;;;;;;;;19.96;45.88;95096.25;10423354;28;2816;-49
2022/11/20 12:31:31;;;;;;;;;;;;;;;20.01;45.82;95088.31;10442593;28;2849;-53
2022/11/20 12:36:42;;;;;;;;;;;;;;;20.00;45.41;95092.78;10429062;28;2807;-48
2022/11/20 12:47:18;;;;;;;;;;;;;;;20.01;44.62;95078.53;10411626;28;2943;-51
2022/11/20 12:52:25;;;;;;;;;;;;;;;20.02;44.97;95090.66;10463226;28;2893;-49
2022/11/20 12:57:38;;;;;;;;;;;;;;;20.05;44.56;95084.03;10444433;28;2818;-52
2022/11/20 13:02:41;;;;;;;;;;;;;;;20.04;44.31;95087.72;10473624;28;2900;-48
2022/11/20 13:07:42;;;;;;;;;;;;;;;20.07;44.19;95084.53;10467229;28;3069;-47
2022/11/20 13:12:46;;;;;;;;;;;;;;;20.11;44.01;95083.66;10465452;28;2836;-49
2022/11/20 13:17:47;;;;;;;;;;;;;;;20.15;44.57;95086.50;10463582;28;2856;-50
2022/11/20 13:22:50;;;;;;;;;;;;;;;20.16;44.95;95070.44;10448493;28;2909;-48
2022/11/20 13:27:51;;;;;;;;;;;;;;;20.18;44.63;95062.25;10446202;28;2907;-51
2022/11/20 13:32:52;;;;;;;;;;;;;;;20.22;44.93;95065.91;10433465;28;2889;-53
2022/11/20 13:38:01;;;;;;;;;;;;;;;20.20;44.31;95063.56;10437934;28;2884;-50
2022/11/20 13:43:08;;;;;;;;;;;;;;;20.19;44.76;95058.56;10444969;28;2867;-52
2022/11/20 13:48:18;;;;;;;;;;;;;;;20.21;44.92;95051.19;10445842;28;2907;-55
2022/11/20 13:53:26;;;;;;;;;;;;;;;20.22;44.66;95058.00;10448657;28;2850;-56
2022/11/20 13:58:42;;;;;;;;;;;;;;;20.26;45.12;95054.50;10438115;28;2856;-53
2022/11/20 14:03:42;;;;;;;;;;;;;;;20.29;45.32;95055.78;10431070;28;2893;-55
2022/11/20 14:08:45;;;;;;;;;;;;;;;20.28;45.06;95062.09;10440996;28;2887;-54
2022/11/20 14:13:59;;;;;;;;;;;;;;;20.28;45.23;95051.59;10441233;28;2925;-51
2022/11/20 14:19:18;;;;;;;;;;;;;;;20.30;45.10;95064.47;10439686;28;2967;-54
2022/11/20 14:24:19;;;;;;;;;;;;;;;20.30;44.87;95067.09;10436579;28;2878;-55
2022/11/20 14:29:27;;;;;;;;;;;;;;;20.31;45.51;95064.19;10448761;28;2870;-53
2022/11/20 14:34:27;;;;;;;;;;;;;;;20.29;44.93;95063.69;10436268;28;2955;-53
2022/11/20 14:39:30;;;;;;;;;;;;;;;20.31;45.16;95060.75;10466411;28;2905;-54
2022/11/20 14:44:31;;;;;;;;;;;;;;;20.30;44.92;95057.34;10448614;28;2864;-59
2022/11/20 14:49:31;;;;;;;;;;;;;;;20.36;44.06;95056.19;10425429;28;2866;-55
2022/11/20 14:54:33;;;;;;;;;;;;;;;20.40;43.93;95051.16;10436767;28;2929;-54
2022/11/20 14:59:33;;;;;;;;;;;;;;;20.41;43.50;95052.69;10443888;28;3231;-54
2022/11/20 15:04:44;;;;;;;;;;;;;;;20.46;43.80;95053.41;10434260;28;2927;-54
2022/11/20 15:09:44;;;;;;;;;;;;;;;20.53;44.27;95056.44;10436980;28;2860;-54
2022/11/20 15:14:44;;;;;;;;;;;;;;;20.56;43.45;95063.78;10452849;28;2903;-55
2022/11/20 15:19:45;;;;;;;;;;;;;;;20.57;43.50;95060.06;10437245;28;2961;-57
2022/11/20 15:24:46;;;;;;;;;;;;;;;20.61;43.35;95062.91;10438293;28;2820;-55
2022/11/20 15:29:46;;;;;;;;;;;;;;;20.61;43.67;95055.00;10441327;28;3014;-56
2022/11/20 15:34:50;;;;;;;;;;;;;;;20.66;43.63;95049.63;10438518;28;2980;-54
2022/11/20 15:39:50;;;;;;;;;;;;;;;20.66;43.22;95050.41;10439578;28;2827;-54
2022/11/20 15:44:50;;;;;;;;;;;;;;;20.66;43.20;95050.41;10440250;28;2863;-58
2022/11/20 15:49:50;;;;;;;;;;;;;;;20.74;44.35;95044.47;10434477;28;2798;-53
2022/11/20 15:54:51;;;;;;;;;;;;;;;20.78;43.67;95049.94;10435976;28;2907;-58
2022/11/20 15:59:51;;;;;;;;;;;;;;;20.79;43.83;95049.63;10439472;28;2851;-58
2022/11/20 16:04:51;;;;;;;;;;;;;;;20.82;43.43;95048.28;10430749;28;2912;-54
2022/11/20 16:09:51;;;;;;;;;;;;;;;20.84;44.71;95039.03;10433266;28;2890;-55
2022/11/20 16:20:11;;;;;;;;;;;;;;;20.87;44.22;95038.47;10439772;28;2880;-56
2022/11/20 16:25:11;;;;;;;;;;;;;;;20.88;44.72;95040.00;10438321;28;2846;-57
2022/11/20 16:30:11;;;;;;;;;;;;;;;20.91;43.76;95036.00;10414845;28;2876;-54
2022/11/20 16:35:22;;;;;;;;;;;;;;;20.91;44.24;95015.72;10444661;28;2934;-57
2022/11/20 16:40:22;;;;;;;;;;;;;;;20.91;44.63;95026.25;10442684;28;2872;-60
2022/11/20 16:45:22;;;;;;;;;;;;;;;20.91;44.54;95018.34;10427611;28;2828;-60
2022/11/20 16:50:22;;;;;;;;;;;;;;;20.92;44.66;95022.53;10423332;28;3026;-58
2022/11/20 16:55:27;;;;;;;;;;;;;;;20.91;44.47;95025.47;10450956;28;3098;-53
2022/11/20 17:00:27;;;;;;;;;;;;;;;20.89;43.73;95020.50;10430354;28;2865;-52
2022/11/20 17:05:28;;;;;;;;;;;;;;;20.88;44.42;95023.41;10440291;28;3008;-53
2022/11/20 17:10:29;;;;;;;;;;;;;;;20.87;44.68;95004.22;10440362;28;2827;-55
2022/11/20 17:15:29;;;;;;;;;;;;;;;20.88;45.00;95003.13;10437213;28;2938;-58
2022/11/20 17:20:31;;;;;;;;;;;;;;;20.86;45.47;95005.28;10444403;28;2889;-53
2022/11/20 17:25:32;;;;;;;;;;;;;;;20.82;43.75;95004.28;10431403;28;2866;-53
2022/11/20 17:30:32;;;;;;;;;;;;;;;20.84;44.57;95002.16;10457056;28;2909;-54
2022/11/20 17:35:34;;;;;;;;;;;;;;;20.82;43.67;94999.03;10436976;28;3187;-59
2022/11/20 17:40:35;;;;;;;;;;;;;;;20.82;43.70;95001.66;10437911;28;3008;-55
2022/11/20 17:45:35;;;;;;;;;;;;;;;20.78;44.10;94990.16;10433447;28;2895;-55
2022/11/20 17:50:35;;;;;;;;;;;;;;;20.73;42.97;94995.50;10444028;28;2889;-54
2022/11/20 18:00:55;;;;;;;;;;;;;;;20.73;43.41;94984.97;10447310;28;2880;-54
2022/11/20 18:05:55;;;;;;;;;;;;;;;20.73;43.12;94984.19;10454341;28;2937;-55
2022/11/20 18:10:55;;;;;;;;;;;;;;;20.72;43.44;94983.41;10465949;28;2856;-51
2022/11/20 18:16:05;;;;;;;;;;;;;;;20.68;43.19;94979.81;10445911;28;2894;-53
2022/11/20 18:21:05;;;;;;;;;;;;;;;20.69;43.39;94972.69;10445957;28;2890;-50
2022/11/20 18:26:05;;;;;;;;;;;;;;;20.66;42.91;94975.91;10433035;28;2851;-47
2022/11/20 18:31:06;;;;;;;;;;;;;;;20.64;42.99;94968.31;10439134;28;2966;-52
2022/11/20 18:36:10;;;;;;;;;;;;;;;20.65;43.03;94967.22;10435636;28;2836;-52
2022/11/20 18:46:30;;;;;;;;;;;;;;;20.58;42.81;94961.56;10434910;28;2903;-50
2022/11/20 18:51:30;;;;;;;;;;;;;;;20.56;42.64;94952.41;10448395;28;2884;-50
2022/11/20 18:56:30;;;;;;;;;;;;;;;20.52;42.77;94936.41;10446804;28;2863;-49
2022/11/20 19:01:30;;;;;;;;;;;;;;;20.49;42.84;94929.09;10443687;28;2853;-52
2022/11/20 19:06:31;;;;;;;;;;;;;;;20.47;43.08;94938.34;10435878;28;2795;-51
2022/11/20 19:11:31;;;;;;;;;;;;;;;20.45;43.02;94930.75;10437425;28;2928;-50
2022/11/20 19:16:31;;;;;;;;;;;;;;;20.42;42.74;94923.44;10430632;28;2812;-51
2022/11/20 19:21:32;;;;;;;;;;;;;;;20.40;42.83;94917.69;10438462;28;2784;-53
2022/11/20 19:26:33;;;;;;;;;;;;;;;20.40;42.91;94915.06;10440727;28;2864;-52
2022/11/20 19:31:33;;;;;;;;;;;;;;;20.43;43.38;94911.03;10442502;28;3042;-50
2022/11/20 19:36:40;;;;;;;;;;;;;;;20.46;44.23;94911.25;10422232;28;2834;-51
2022/11/20 19:41:40;;;;;;;;;;;;;;;20.47;43.77;94907.53;10428231;28;2818;-50
2022/11/20 19:46:40;;;;;;;;;;;;;;;20.47;44.15;94910.16;10436763;28;2887;-52
2022/11/20 19:51:45;;;;;;;;;;;;;;;20.47;44.43;94915.44;10436832;28;3038;-50
2022/11/20 19:56:47;;;;;;;;;;;;;;;20.41;43.75;94903.44;10425961;28;2881;-52
2022/11/20 20:01:47;;;;;;;;;;;;;;;20.38;44.64;94890.84;10442628;28;2868;-50
2022/11/20 20:06:49;;;;;;;;;;;;;;;20.36;44.32;94885.09;10433376;28;3274;-53
2022/11/20 20:11:50;;;;;;;;;;;;;;;20.35;44.87;94880.13;10436256;28;2989;-53
2022/11/20 20:16:50;;;;;;;;;;;;;;;20.36;44.82;94876.44;10442202;28;2959;-52
2022/11/20 20:21:54;;;;;;;;;;;;;;;20.36;45.27;94871.19;10431772;28;2767;-53
2022/11/20 20:26:54;;;;;;;;;;;;;;;20.34;44.78;94874.09;10467890;28;2841;-51
2022/11/20 20:31:55;;;;;;;;;;;;;;;20.32;45.34;94857.03;10438103;28;2942;-52
2022/11/20 20:36:55;;;;;;;;;;;;;;;20.35;44.91;94856.44;10453321;28;2889;-52
2022/11/20 20:41:56;;;;;;;;;;;;;;;20.30;45.02;94853.94;10451480;28;2828;-53
2022/11/20 20:46:56;;;;;;;;;;;;;;;20.27;44.92;94861.34;10425790;28;2817;-50
2022/11/20 20:51:57;;;;;;;;;;;;;;;20.27;44.90;94863.19;10446725;28;2894;-52
2022/11/20 20:56:57;;;;;;;;;;;;;;;20.26;45.03;94864.25;10448477;28;2816;-52
2022/11/20 21:01:57;;;;;;;;;;;;;;;20.25;45.12;94855.59;10429873;28;2830;-53
2022/11/20 21:06:58;;;;;;;;;;;;;;;20.20;44.90;94849.63;10441253;28;2888;-53
2022/11/20 21:11:58;;;;;;;;;;;;;;;20.18;45.29;94847.25;10444748;28;2874;-50
2022/11/20 21:16:58;;;;;;;;;;;;;;;20.15;44.66;94842.56;10442352;28;3214;-52
2022/11/20 21:21:58;;;;;;;;;;;;;;;20.15;44.86;94837.31;10451386;28;2886;-52
2022/11/20 21:26:59;;;;;;;;;;;;;;;20.10;44.31;94829.53;10443320;28;2875;-52
2022/11/20 21:31:59;;;;;;;;;;;;;;;20.11;44.90;94846.84;10439770;28;2850;-54
2022/11/20 21:37:00;;;;;;;;;;;;;;;20.07;44.26;94851.13;10442430;28;3205;-52
2022/11/20 21:42:00;;;;;;;;;;;;;;;20.02;44.32;94864.41;10445584;28;2864;-54
2022/11/20 21:47:00;;;;;;;;;;;;;;;19.97;43.90;94869.75;10439482;28;2863;-55
2022/11/20 21:52:03;;;;;;;;;;;;;;;19.93;42.98;94873.25;10440972;28;3011;-51
2022/11/20 21:57:03;;;;;;;;;;;;;;;19.91;43.37;94880.63;10439646;28;2844;-53
2022/11/20 22:02:03;;;;;;;;;;;;;;;19.92;43.91;94882.22;10417498;28;2934;-53
2022/11/20 22:07:04;;;;;;;;;;;;;;;19.91;43.70;94885.91;10442676;28;2845;-53
2022/11/20 22:12:04;;;;;;;;;;;;;;;19.91;43.98;94867.47;10438094;28;3049;-53
2022/11/20 22:17:04;;;;;;;;;;;;;;;19.88;43.45;94868.09;10446503;28;2955;-54
2022/11/20 22:22:05;;;;;;;;;;;;;;;19.88;43.66;94865.44;10449305;28;2901;-52
2022/11/20 22:27:05;;;;;;;;;;;;;;;19.87;43.81;94866.50;10447859;28;2891;-54
2022/11/20 22:32:06;;;;;;;;;;;;;;;19.83;44.04;94865.53;10448602;28;2886;-54
2022/11/20 22:37:06;;;;;;;;;;;;;;;19.81;43.78;94865.81;10444185;28;2878;-52
2022/11/20 22:42:06;;;;;;;;;;;;;;;19.80;43.46;94874.81;10446313;28;2854;-52
2022/11/20 22:47:07;;;;;;;;;;;;;;;19.77;43.41;94880.63;10447744;28;2888;-51
2022/11/20 22:52:07;;;;;;;;;;;;;;;19.75;43.57;94876.72;10443169;28;2840;-53
2022/11/20 22:57:07;;;;;;;;;;;;;;;19.68;43.60;94879.72;10425814;28;2894;-54
2022/11/20 23:02:07;;;;;;;;;;;;;;;19.64;43.03;94878.72;10441304;28;2926;-51
2022/11/20 23:07:08;;;;;;;;;;;;;;;19.63;42.98;94866.66;10438476;28;2901;-54
2022/11/20 23:12:08;;;;;;;;;;;;;;;19.62;42.86;94872.22;10438267;28;2903;-53
2022/11/20 23:17:12;;;;;;;;;;;;;;;19.61;42.90;94865.38;10436702;28;2973;-50
2022/11/20 23:22:12;;;;;;;;;;;;;;;19.61;43.04;94868.00;10444630;28;2844;-53
2022/11/20 23:27:12;;;;;;;;;;;;;;;19.55;42.42;94850.75;10432275;28;2883;-52
2022/11/20 23:32:18;;;;;;;;;;;;;;;19.49;43.08;94863.22;10442936;28;2944;-52
2022/11/20 23:37:18;;;;;;;;;;;;;;;19.49;42.71;94861.34;10439064;28;3204;-50
2022/11/20 23:42:19;;;;;;;;;;;;;;;19.47;42.89;94863.50;10440572;28;2891;-53
2022/11/20 23:47:19;;;;;;;;;;;;;;;19.47;42.93;94873.25;10441835;28;2891;-54
2022/11/20 23:52:23;;;;;;;;;;;;;;;19.43;43.09;94873.00;10447401;28;2851;-52
2022/11/20 23:57:24;;;;;;;;;;;;;;;19.42;42.96;94874.09;10420818;28;3245;-52
